Time;durP1;ratioP1;P1;durP2;ratioP2;P2;SDS_P1;SDS_P2;PMS_P1;PMS_P2;Temp;Humidity;BMP_temperature;BMP_pressure;BME280_temperature;BME280_humidity;BME280_pressure;Samples;Min_cycle;Max_cycle;Signal;HPM_P1;HPM_P2
2023/05/22 00:01:19;;;;;;;;;;;16.00;99.90;;;;;;5042912;28;19984;-67
2023/05/22 00:03:45;;;;;;;;;;;15.90;99.90;;;;;;5043176;28;19956;-67
2023/05/22 00:06:13;;;;;;;;;;;15.90;99.90;;;;;;5042578;28;19975;-67
2023/05/22 00:08:40;;;;;;;;;;;15.80;99.90;;;;;;5043037;28;19927;-67
2023/05/22 00:11:08;;;;;;;;;;;15.70;99.90;;;;;;5043152;28;19931;-68
2023/05/22 00:13:36;;;;;;;;;;;15.70;99.90;;;;;;5039628;28;20284;-67
2023/05/22 00:16:03;;;;;;;;;;;15.70;99.90;;;;;;5042427;28;19968;-67
2023/05/22 00:18:29;;;;;;;;;;;15.60;99.90;;;;;;5042764;28;19944;-67
2023/05/22 00:20:56;;;;;;;;;;;15.50;99.90;;;;;;5045847;28;19921;-67
2023/05/22 00:23:24;;;;;;;;;;;15.50;99.90;;;;;;5046636;28;19921;-67
2023/05/22 00:25:51;;;;;;;;;;;15.40;99.90;;;;;;5046080;28;20156;-67
2023/05/22 00:28:19;;;;;;;;;;;15.30;99.90;;;;;;5046435;28;19984;-68
2023/05/22 00:30:45;;;;;;;;;;;15.30;99.90;;;;;;5046528;28;19984;-67
2023/05/22 00:33:12;;;;;;;;;;;15.20;99.90;;;;;;5046765;28;20116;-67
2023/05/22 00:35:39;;;;;;;;;;;15.30;99.90;;;;;;5045899;28;19921;-67
2023/05/22 00:38:06;;;;;;;;;;;15.20;99.90;;;;;;5046172;28;19949;-66
2023/05/22 00:40:32;;;;;;;;;;;15.20;99.90;;;;;;5046582;28;19921;-66
2023/05/22 00:42:59;;;;;;;;;;;15.20;99.90;;;;;;5046558;28;19927;-67
2023/05/22 00:45:27;;;;;;;;;;;15.20;99.90;;;;;;5046272;28;20007;-67
2023/05/22 00:47:53;;;;;;;;;;;15.20;99.90;;;;;;5046268;28;19957;-66
2023/05/22 00:50:20;;;;;;;;;;;15.20;99.90;;;;;;5046456;28;20159;-67
2023/05/22 00:52:47;;;;;;;;;;;15.10;99.90;;;;;;5046084;28;19957;-67
2023/05/22 00:55:14;;;;;;;;;;;15.10;99.90;;;;;;5045833;28;20115;-67
2023/05/22 00:57:41;;;;;;;;;;;15.00;99.90;;;;;;5043599;28;19984;-67
2023/05/22 01:00:09;;;;;;;;;;;14.90;99.90;;;;;;5026413;28;19922;-67
2023/05/22 01:02:38;;;;;;;;;;;14.80;99.90;;;;;;5026087;28;19944;-67
2023/05/22 01:05:05;;;;;;;;;;;14.80;99.90;;;;;;5025861;28;19921;-67
2023/05/22 01:07:33;;;;;;;;;;;14.80;99.90;;;;;;5025338;28;19944;-67
2023/05/22 01:09:59;;;;;;;;;;;14.80;99.90;;;;;;5030652;28;20130;-67
2023/05/22 01:12:30;;;;;;;;;;;14.70;99.90;;;;;;5045762;28;19989;-67
2023/05/22 01:15:03;;;;;;;;;;;14.70;99.90;;;;;;5042747;28;19920;-66
2023/05/22 01:17:33;;;;;;;;;;;14.70;99.90;;;;;;5045450;28;19979;-67
2023/05/22 01:20:08;;;;;;;;;;;14.70;99.90;;;;;;5045447;28;20275;-66
2023/05/22 01:22:57;;;;;;;;;;;14.70;99.90;;;;;;5045860;28;19929;-68
2023/05/22 01:25:36;;;;;;;;;;;14.60;99.90;;;;;;5045178;28;20212;-66
2023/05/22 01:28:08;;;;;;;;;;;14.60;99.90;;;;;;5045349;28;20105;-66
2023/05/22 01:30:45;;;;;;;;;;;14.50;99.90;;;;;;5044948;28;19988;-67
2023/05/22 01:33:14;;;;;;;;;;;14.60;99.90;;;;;;5045103;28;19921;-66
2023/05/22 01:35:41;;;;;;;;;;;14.50;99.90;;;;;;5044783;28;19921;-67
2023/05/22 01:38:08;;;;;;;;;;;14.50;99.90;;;;;;5045363;28;19921;-67
2023/05/22 01:40:36;;;;;;;;;;;14.50;99.90;;;;;;5045052;28;19921;-66
2023/05/22 01:43:02;;;;;;;;;;;14.40;99.90;;;;;;5045386;28;19928;-66
2023/05/22 01:45:30;;;;;;;;;;;14.40;99.90;;;;;;5044836;28;19928;-66
2023/05/22 01:47:58;;;;;;;;;;;14.40;99.90;;;;;;5044681;28;20162;-66
2023/05/22 01:50:25;;;;;;;;;;;14.40;99.90;;;;;;5045206;28;19952;-67
2023/05/22 01:52:55;;;;;;;;;;;14.40;99.90;;;;;;5045248;28;19925;-66
2023/05/22 01:55:26;;;;;;;;;;;14.30;99.90;;;;;;5044637;28;20227;-67
2023/05/22 01:57:57;;;;;;;;;;;14.30;99.90;;;;;;5044899;28;20112;-67
2023/05/22 02:00:25;;;;;;;;;;;14.20;99.90;;;;;;5044760;28;19984;-66
2023/05/22 02:02:56;;;;;;;;;;;14.20;99.90;;;;;;5045012;28;19921;-68
2023/05/22 02:05:26;;;;;;;;;;;14.10;99.90;;;;;;5044601;28;19927;-66
2023/05/22 02:07:56;;;;;;;;;;;14.00;99.90;;;;;;5044297;28;20113;-66
2023/05/22 02:10:23;;;;;;;;;;;14.00;99.90;;;;;;5044805;28;19921;-66
2023/05/22 02:12:50;;;;;;;;;;;13.90;99.90;;;;;;5044861;28;19927;-67
2023/05/22 02:15:16;;;;;;;;;;;13.90;99.90;;;;;;5041728;28;19927;-66
2023/05/22 02:17:44;;;;;;;;;;;13.80;99.90;;;;;;5044284;28;19988;-66
2023/05/22 02:20:13;;;;;;;;;;;13.80;99.90;;;;;;5044705;28;19952;-67
2023/05/22 02:22:43;;;;;;;;;;;13.70;99.90;;;;;;5044604;28;19921;-66
2023/05/22 02:25:13;;;;;;;;;;;13.70;99.90;;;;;;5044229;28;19948;-67
2023/05/22 02:27:40;;;;;;;;;;;13.70;99.90;;;;;;5043545;28;19921;-67
2023/05/22 02:30:07;;;;;;;;;;;13.70;99.90;;;;;;5044180;28;20205;-67
2023/05/22 02:32:34;;;;;;;;;;;13.70;99.90;;;;;;5044171;28;19927;-68
2023/05/22 02:35:01;;;;;;;;;;;13.70;99.90;;;;;;5044190;28;19967;-67
2023/05/22 02:37:28;;;;;;;;;;;13.70;99.90;;;;;;5043434;28;20268;-67
2023/05/22 02:39:56;;;;;;;;;;;13.70;99.90;;;;;;5043999;28;20209;-67
2023/05/22 02:42:23;;;;;;;;;;;13.70;99.90;;;;;;5043911;28;19987;-67
2023/05/22 02:44:49;;;;;;;;;;;13.70;99.90;;;;;;5044061;28;19944;-67
2023/05/22 02:47:16;;;;;;;;;;;13.70;99.90;;;;;;5043769;28;20227;-67
2023/05/22 02:49:43;;;;;;;;;;;13.60;99.90;;;;;;5043865;28;19921;-66
2023/05/22 02:52:09;;;;;;;;;;;13.50;99.90;;;;;;5024337;28;19964;-66
2023/05/22 02:54:36;;;;;;;;;;;13.50;99.90;;;;;;5024157;28;19975;-66
2023/05/22 02:57:04;;;;;;;;;;;13.50;99.90;;;;;;5023418;28;20161;-67
2023/05/22 02:59:31;;;;;;;;;;;13.40;99.90;;;;;;5024189;28;19921;-66
2023/05/22 03:01:58;;;;;;;;;;;13.30;99.90;;;;;;5032345;28;19921;-66
2023/05/22 03:04:24;;;;;;;;;;;13.30;99.90;;;;;;5024113;28;19971;-67
2023/05/22 03:06:51;;;;;;;;;;;13.30;99.90;;;;;;5022965;28;19980;-67
2023/05/22 03:09:19;;;;;;;;;;;13.30;99.90;;;;;;5023975;28;20160;-67
2023/05/22 03:11:45;;;;;;;;;;;13.30;99.90;;;;;;5023748;28;19922;-67
2023/05/22 03:14:13;;;;;;;;;;;13.20;99.90;;;;;;5023793;28;19984;-67
2023/05/22 03:16:40;;;;;;;;;;;13.20;99.90;;;;;;5022918;28;19956;-66
2023/05/22 03:19:07;;;;;;;;;;;13.10;99.90;;;;;;5023909;28;19922;-67
2023/05/22 03:21:34;;;;;;;;;;;13.10;99.90;;;;;;5023632;28;19997;-67
2023/05/22 03:24:00;;;;;;;;;;;13.10;99.90;;;;;;5023456;28;20257;-68
2023/05/22 03:26:27;;;;;;;;;;;13.00;99.90;;;;;;5022990;28;19964;-68
2023/05/22 03:28:54;;;;;;;;;;;13.00;99.90;;;;;;5023577;28;19957;-67
2023/05/22 03:31:23;;;;;;;;;;;13.00;99.90;;;;;;5023435;28;20206;-68
2023/05/22 03:33:49;;;;;;;;;;;13.00;99.90;;;;;;5023458;28;19921;-67
2023/05/22 03:36:16;;;;;;;;;;;13.00;99.90;;;;;;5023237;28;19972;-66
2023/05/22 03:38:42;;;;;;;;;;;13.00;99.90;;;;;;5023523;28;20162;-66
2023/05/22 03:41:09;;;;;;;;;;;13.00;99.90;;;;;;5023604;28;19957;-66
2023/05/22 03:43:36;;;;;;;;;;;12.90;99.90;;;;;;5023559;28;19943;-66
2023/05/22 03:46:02;;;;;;;;;;;12.90;99.90;;;;;;5022906;28;19992;-67
2023/05/22 03:48:30;;;;;;;;;;;12.80;99.90;;;;;;5023202;28;19963;-66
2023/05/22 03:50:57;;;;;;;;;;;12.80;99.90;;;;;;5032243;28;19960;-66
2023/05/22 03:53:24;;;;;;;;;;;12.80;99.90;;;;;;5043245;28;20352;-66
2023/05/22 03:55:50;;;;;;;;;;;12.80;99.90;;;;;;5045114;28;19984;-67
2023/05/22 03:58:17;;;;;;;;;;;12.80;99.90;;;;;;5047008;28;19961;-67
2023/05/22 04:00:45;;;;;;;;;;;12.80;99.90;;;;;;5046953;28;19988;-66
2023/05/22 04:03:11;;;;;;;;;;;12.80;99.90;;;;;;5046927;28;20208;-67
2023/05/22 04:05:39;;;;;;;;;;;12.70;99.90;;;;;;5046358;28;19921;-67
2023/05/22 04:08:06;;;;;;;;;;;12.70;99.90;;;;;;5046675;28;20090;-68
2023/05/22 04:10:34;;;;;;;;;;;12.60;99.90;;;;;;5047104;28;19964;-67
2023/05/22 04:13:01;;;;;;;;;;;12.50;99.90;;;;;;5046928;28;20209;-66
2023/05/22 04:15:32;;;;;;;;;;;12.50;99.90;;;;;;5043668;28;19928;-68
2023/05/22 04:17:59;;;;;;;;;;;12.50;99.90;;;;;;5046118;28;19944;-66
2023/05/22 04:20:26;;;;;;;;;;;12.50;99.90;;;;;;5046651;28;19921;-66
2023/05/22 04:22:54;;;;;;;;;;;12.60;99.90;;;;;;5038756;28;20226;-66
2023/05/22 04:25:21;;;;;;;;;;;12.60;99.90;;;;;;5035836;28;19922;-66
2023/05/22 04:27:49;;;;;;;;;;;12.70;99.90;;;;;;5026286;28;19992;-67
2023/05/22 04:30:17;;;;;;;;;;;12.80;99.90;;;;;;5027103;28;19928;-67
2023/05/22 04:32:43;;;;;;;;;;;12.80;99.90;;;;;;5036978;28;19957;-67
2023/05/22 04:35:11;;;;;;;;;;;12.90;99.90;;;;;;5045107;28;20185;-67
2023/05/22 04:37:39;;;;;;;;;;;13.00;99.90;;;;;;5027275;28;19922;-66
2023/05/22 04:40:10;;;;;;;;;;;13.10;99.90;;;;;;5026775;28;19928;-66
2023/05/22 04:42:37;;;;;;;;;;;13.20;99.90;;;;;;5035617;28;20017;-68
2023/05/22 04:45:04;;;;;;;;;;;13.30;99.90;;;;;;5046157;28;19988;-67
2023/05/22 04:47:31;;;;;;;;;;;13.30;99.90;;;;;;5045648;28;19920;-66
2023/05/22 04:49:58;;;;;;;;;;;13.40;99.90;;;;;;5046564;28;19921;-66
2023/05/22 04:52:25;;;;;;;;;;;13.40;99.90;;;;;;5046081;28;19921;-68
2023/05/22 04:54:53;;;;;;;;;;;13.50;99.90;;;;;;5045953;28;19928;-66
2023/05/22 04:57:24;;;;;;;;;;;13.50;99.90;;;;;;5045382;28;19925;-67
2023/05/22 04:59:50;;;;;;;;;;;13.60;99.90;;;;;;5046312;28;19921;-66
2023/05/22 05:02:17;;;;;;;;;;;13.70;99.90;;;;;;5035075;28;19960;-67
2023/05/22 05:04:45;;;;;;;;;;;13.70;99.90;;;;;;5026209;28;20166;-67
2023/05/22 05:07:12;;;;;;;;;;;13.80;99.90;;;;;;5025228;28;19921;-67
2023/05/22 05:09:38;;;;;;;;;;;13.90;99.90;;;;;;5026161;28;19959;-67
2023/05/22 05:12:05;;;;;;;;;;;14.00;99.90;;;;;;5026157;28;19949;-66
2023/05/22 05:14:33;;;;;;;;;;;14.00;99.90;;;;;;5026622;28;20213;-67
2023/05/22 05:17:01;;;;;;;;;;;14.10;99.90;;;;;;5044744;28;19921;-68
2023/05/22 05:19:27;;;;;;;;;;;14.10;99.90;;;;;;5045843;28;19963;-66
2023/05/22 05:21:54;;;;;;;;;;;14.20;99.90;;;;;;5045466;28;19937;-66
2023/05/22 05:24:21;;;;;;;;;;;14.30;99.90;;;;;;5044800;28;19980;-66
2023/05/22 05:26:47;;;;;;;;;;;14.50;99.90;;;;;;5042494;28;20173;-67
2023/05/22 05:29:14;;;;;;;;;;;14.60;99.90;;;;;;5045641;28;19927;-67
2023/05/22 05:31:42;;;;;;;;;;;14.60;99.90;;;;;;5045716;28;19952;-70
2023/05/22 05:34:08;;;;;;;;;;;14.80;99.90;;;;;;5045130;28;19921;-67
2023/05/22 05:36:35;;;;;;;;;;;14.90;99.90;;;;;;5044530;28;19997;-68
2023/05/22 05:39:02;;;;;;;;;;;15.00;99.90;;;;;;5045552;28;19925;-68
2023/05/22 05:41:29;;;;;;;;;;;15.10;99.90;;;;;;5045195;28;19922;-68
2023/05/22 05:43:58;;;;;;;;;;;15.20;99.90;;;;;;5043820;28;20044;-67
2023/05/22 05:46:25;;;;;;;;;;;15.40;99.90;;;;;;5044663;28;19988;-67
2023/05/22 05:48:53;;;;;;;;;;;15.50;99.90;;;;;;5045130;28;19957;-68
2023/05/22 05:51:20;;;;;;;;;;;15.50;99.90;;;;;;5045095;28;20369;-68
2023/05/22 05:53:49;;;;;;;;;;;15.70;99.90;;;;;;5044160;28;19927;-68
2023/05/22 05:56:16;;;;;;;;;;;15.80;99.90;;;;;;5044627;28;19992;-68
2023/05/22 05:58:43;;;;;;;;;;;15.90;99.90;;;;;;5044752;28;19984;-69
2023/05/22 06:01:10;;;;;;;;;;;16.10;99.90;;;;;;5045176;28;19984;-68
2023/05/22 06:03:37;;;;;;;;;;;16.20;99.90;;;;;;5044486;28;19921;-69
2023/05/22 06:06:06;;;;;;;;;;;16.30;99.90;;;;;;5044560;28;19949;-68
2023/05/22 06:08:33;;;;;;;;;;;16.40;99.90;;;;;;5044666;28;19948;-68
2023/05/22 06:10:59;;;;;;;;;;;16.60;99.90;;;;;;5044929;28;19952;-69
2023/05/22 06:13:26;;;;;;;;;;;16.60;99.90;;;;;;5044592;28;19927;-69
2023/05/22 06:15:53;;;;;;;;;;;16.80;99.90;;;;;;5043979;28;19996;-68
2023/05/22 06:18:19;;;;;;;;;;;16.90;99.90;;;;;;5043511;28;19921;-68
2023/05/22 06:20:46;;;;;;;;;;;17.10;99.90;;;;;;5044345;28;20010;-68
2023/05/22 06:23:14;;;;;;;;;;;17.30;99.90;;;;;;5044492;28;19928;-69
2023/05/22 06:25:40;;;;;;;;;;;17.40;99.90;;;;;;5043832;28;19963;-69
2023/05/22 06:28:07;;;;;;;;;;;17.50;99.90;;;;;;5044019;28;19921;-69
2023/05/22 06:30:34;;;;;;;;;;;17.60;99.90;;;;;;5044634;28;19928;-68
2023/05/22 06:33:00;;;;;;;;;;;17.70;99.90;;;;;;5044513;28;19996;-68
2023/05/22 06:35:27;;;;;;;;;;;17.70;99.90;;;;;;5043939;28;19988;-68
2023/05/22 06:37:54;;;;;;;;;;;17.80;99.90;;;;;;5038852;28;19921;-69
2023/05/22 06:40:22;;;;;;;;;;;17.90;99.90;;;;;;5032762;28;19921;-69
2023/05/22 06:42:48;;;;;;;;;;;18.00;99.90;;;;;;5037910;28;19928;-69
2023/05/22 06:45:18;;;;;;;;;;;18.10;99.90;;;;;;5036556;28;19963;-69
2023/05/22 06:47:45;;;;;;;;;;;18.10;99.90;;;;;;5040372;28;19956;-69
2023/05/22 06:50:11;;;;;;;;;;;18.30;99.90;;;;;;5030875;28;19928;-69
2023/05/22 06:52:38;;;;;;;;;;;18.30;99.90;;;;;;5024089;28;19928;-69
2023/05/22 06:55:05;;;;;;;;;;;18.40;99.90;;;;;;5036894;28;20156;-68
2023/05/22 06:57:33;;;;;;;;;;;18.40;99.90;;;;;;5042770;28;19964;-69
2023/05/22 07:00:00;;;;;;;;;;;18.50;99.90;;;;;;5043928;28;19922;-70
2023/05/22 07:02:26;;;;;;;;;;;18.60;99.90;;;;;;5043838;28;19921;-67
2023/05/22 07:04:53;;;;;;;;;;;18.50;99.90;;;;;;5043399;28;20264;-67
2023/05/22 07:07:20;;;;;;;;;;;18.50;99.90;;;;;;5043226;28;19982;-66
2023/05/22 07:09:46;;;;;;;;;;;18.60;99.90;;;;;;5043593;28;20181;-67
2023/05/22 07:12:13;;;;;;;;;;;18.70;99.90;;;;;;5043733;28;19984;-66
2023/05/22 07:14:41;;;;;;;;;;;18.80;99.90;;;;;;5043642;28;19989;-67
2023/05/22 07:17:08;;;;;;;;;;;18.90;99.90;;;;;;5043104;28;19928;-66
2023/05/22 07:19:35;;;;;;;;;;;19.00;99.90;;;;;;5043437;28;20032;-68
2023/05/22 07:22:01;;;;;;;;;;;19.10;99.90;;;;;;5043413;28;19928;-67
2023/05/22 07:24:28;;;;;;;;;;;19.10;99.90;;;;;;5043199;28;19964;-66
2023/05/22 07:26:55;;;;;;;;;;;19.20;99.90;;;;;;5042834;28;19956;-66
2023/05/22 07:29:21;;;;;;;;;;;19.30;99.90;;;;;;5042285;28;20271;-67
2023/05/22 07:31:49;;;;;;;;;;;19.30;99.90;;;;;;5043176;28;19921;-67
2023/05/22 07:34:16;;;;;;;;;;;19.30;99.90;;;;;;5043083;28;19921;-66
2023/05/22 07:36:44;;;;;;;;;;;19.40;99.90;;;;;;5041319;28;19992;-67
2023/05/22 07:39:11;;;;;;;;;;;19.50;99.90;;;;;;5040768;28;20239;-66
2023/05/22 07:41:38;;;;;;;;;;;19.50;99.90;;;;;;5023198;28;19922;-67
2023/05/22 07:44:05;;;;;;;;;;;19.50;99.90;;;;;;5023262;28;19981;-67
2023/05/22 07:46:34;;;;;;;;;;;19.70;99.90;;;;;;5023042;28;19956;-67
2023/05/22 07:49:01;;;;;;;;;;;19.70;99.90;;;;;;5023437;28;19922;-67
2023/05/22 07:51:28;;;;;;;;;;;19.80;99.90;;;;;;5023422;28;19922;-66
2023/05/22 07:53:55;;;;;;;;;;;19.80;99.90;;;;;;5022783;28;19988;-66
2023/05/22 07:56:21;;;;;;;;;;;19.80;99.90;;;;;;5022579;28;19976;-67
2023/05/22 07:58:48;;;;;;;;;;;19.90;99.90;;;;;;5023410;28;20162;-67
2023/05/22 08:01:15;;;;;;;;;;;20.00;99.90;;;;;;5040569;28;19922;-67
2023/05/22 08:03:41;;;;;;;;;;;20.00;99.90;;;;;;5042748;28;20089;-67
2023/05/22 08:06:10;;;;;;;;;;;20.10;99.90;;;;;;5041806;28;19956;-66
2023/05/22 08:08:36;;;;;;;;;;;20.20;99.90;;;;;;5042677;28;19921;-68
2023/05/22 08:11:03;;;;;;;;;;;20.30;99.90;;;;;;5042598;28;19959;-66
2023/05/22 08:13:30;;;;;;;;;;;20.40;99.90;;;;;;5042731;28;19928;-67
2023/05/22 08:15:56;;;;;;;;;;;20.50;99.90;;;;;;5039603;28;19933;-67
2023/05/22 08:18:26;;;;;;;;;;;20.60;99.90;;;;;;5042519;28;19928;-66
2023/05/22 08:20:53;;;;;;;;;;;20.60;99.90;;;;;;5042786;28;19960;-66
2023/05/22 08:23:21;;;;;;;;;;;20.70;99.90;;;;;;5043010;28;19921;-66
2023/05/22 08:25:48;;;;;;;;;;;20.80;99.90;;;;;;5041730;28;19920;-67
2023/05/22 08:28:15;;;;;;;;;;;20.90;99.90;;;;;;5042324;28;19928;-67
2023/05/22 08:30:42;;;;;;;;;;;20.90;99.90;;;;;;5042952;28;19953;-67
2023/05/22 08:33:08;;;;;;;;;;;21.00;99.90;;;;;;5042787;28;19928;-67
2023/05/22 08:35:35;;;;;;;;;;;21.10;99.90;;;;;;5042290;28;20247;-67
2023/05/22 08:38:03;;;;;;;;;;;21.20;99.90;;;;;;5041241;28;19928;-67
2023/05/22 08:40:34;;;;;;;;;;;21.20;99.90;;;;;;5031795;28;19963;-67
2023/05/22 08:43:01;;;;;;;;;;;21.20;99.90;;;;;;5026735;28;20120;-67
2023/05/22 08:45:28;;;;;;;;;;;21.30;99.90;;;;;;5026379;28;19957;-67
2023/05/22 08:47:56;;;;;;;;;;;21.40;99.90;;;;;;5040756;28;19932;-67
2023/05/22 08:50:24;;;;;;;;;;;21.50;99.90;;;;;;5046244;28;19984;-67
2023/05/22 08:52:51;;;;;;;;;;;21.70;99.90;;;;;;5046033;28;20217;-67
2023/05/22 08:55:19;;;;;;;;;;;21.70;99.90;;;;;;5045743;28;19921;-67
2023/05/22 08:57:47;;;;;;;;;;;21.70;99.90;;;;;;5045179;28;19992;-66
2023/05/22 09:00:14;;;;;;;;;;;21.80;99.90;;;;;;5045964;28;19921;-67
2023/05/22 09:02:41;;;;;;;;;;;22.00;99.90;;;;;;5046105;28;20144;-67
2023/05/22 09:05:08;;;;;;;;;;;22.00;99.90;;;;;;5045814;28;19984;-66
2023/05/22 09:07:36;;;;;;;;;;;22.10;99.90;;;;;;5045056;28;20160;-66
2023/05/22 09:10:05;;;;;;;;;;;22.20;99.90;;;;;;5045640;28;20276;-67
2023/05/22 09:12:32;;;;;;;;;;;22.20;99.90;;;;;;5045881;28;20113;-68
2023/05/22 09:15:07;;;;;;;;;;;22.30;99.90;;;;;;5045354;28;19996;-66
2023/05/22 09:17:34;;;;;;;;;;;22.30;99.90;;;;;;5045083;28;19921;-67
2023/05/22 09:20:00;;;;;;;;;;;22.40;99.90;;;;;;5045441;28;19927;-67
2023/05/22 09:22:34;;;;;;;;;;;22.40;99.90;;;;;;5045480;28;19921;-67
2023/05/22 09:25:01;;;;;;;;;;;22.50;99.90;;;;;;5045311;28;19956;-67
2023/05/22 09:27:27;;;;;;;;;;;22.60;99.90;;;;;;5042248;28;20124;-66
2023/05/22 09:29:55;;;;;;;;;;;22.70;99.90;;;;;;5045598;28;19927;-66
2023/05/22 09:32:23;;;;;;;;;;;22.80;99.90;;;;;;5045504;28;19943;-66
2023/05/22 09:34:50;;;;;;;;;;;22.80;99.90;;;;;;5045471;28;19921;-66
2023/05/22 09:37:17;;;;;;;;;;;22.90;99.90;;;;;;5044647;28;19971;-67
2023/05/22 09:39:44;;;;;;;;;;;23.00;99.90;;;;;;5040529;28;19922;-67
2023/05/22 09:42:13;;;;;;;;;;;23.10;99.90;;;;;;5025085;28;19925;-66
2023/05/22 09:44:41;;;;;;;;;;;23.20;99.90;;;;;;5025307;28;19921;-67
2023/05/22 09:47:08;;;;;;;;;;;23.30;99.90;;;;;;5033215;28;20156;-66
2023/05/22 09:49:40;;;;;;;;;;;23.40;99.90;;;;;;5042244;28;20217;-67
2023/05/22 09:52:08;;;;;;;;;;;23.60;99.90;;;;;;5044348;28;19984;-67
2023/05/22 09:54:35;;;;;;;;;;;23.70;99.90;;;;;;5039055;28;19966;-67
2023/05/22 09:57:04;;;;;;;;;;;23.70;99.90;;;;;;5028694;28;19921;-67
2023/05/22 09:59:32;;;;;;;;;;;23.80;99.90;;;;;;5025281;28;19925;-66
2023/05/22 10:01:59;;;;;;;;;;;23.80;99.90;;;;;;5029905;28;19964;-67
2023/05/22 10:04:27;;;;;;;;;;;23.90;99.90;;;;;;5044785;28;19967;-66
2023/05/22 10:06:57;;;;;;;;;;;23.90;99.90;;;;;;5041015;28;20399;-67
2023/05/22 10:09:29;;;;;;;;;;;24.10;99.90;;;;;;5041962;28;20132;-66
2023/05/22 10:11:57;;;;;;;;;;;24.10;99.90;;;;;;5044241;28;19928;-66
2023/05/22 10:14:24;;;;;;;;;;;24.30;99.90;;;;;;5044633;28;19921;-67
2023/05/22 10:16:53;;;;;;;;;;;24.40;99.90;;;;;;5040473;28;19935;-66
2023/05/22 10:19:20;;;;;;;;;;;24.50;99.90;;;;;;5044568;28;19957;-67
2023/05/22 10:21:48;;;;;;;;;;;24.60;99.90;;;;;;5044311;28;19961;-67
2023/05/22 10:24:16;;;;;;;;;;;24.80;99.90;;;;;;5044332;28;19927;-67
2023/05/22 10:26:42;;;;;;;;;;;24.90;99.90;;;;;;5044024;28;19960;-67
2023/05/22 10:29:11;;;;;;;;;;;25.00;99.90;;;;;;5043931;28;20177;-66
2023/05/22 10:31:42;;;;;;;;;;;25.10;99.90;;;;;;5044137;28;20367;-67
2023/05/22 10:34:11;;;;;;;;;;;25.20;99.90;;;;;;5044132;28;19921;-66
2023/05/22 10:36:47;;;;;;;;;;;25.30;99.90;;;;;;5043297;28;19952;-67
2023/05/22 10:39:21;;;;;;;;;;;25.50;99.90;;;;;;5043057;28;19952;-67
2023/05/22 10:41:48;;;;;;;;;;;25.60;99.90;;;;;;5042578;28;19987;-67
2023/05/22 10:44:15;;;;;;;;;;;25.70;99.90;;;;;;5043343;28;19984;-67
2023/05/22 10:46:47;;;;;;;;;;;25.80;99.90;;;;;;5043167;28;20008;-67
2023/05/22 10:49:20;;;;;;;;;;;25.80;99.90;;;;;;5043749;28;19921;-67
2023/05/22 10:51:46;;;;;;;;;;;25.90;99.90;;;;;;5044066;28;19963;-66
2023/05/22 10:54:13;;;;;;;;;;;26.00;99.90;;;;;;5043853;28;20002;-66
2023/05/22 10:56:41;;;;;;;;;;;26.00;99.90;;;;;;5042912;28;20090;-67
2023/05/22 10:59:08;;;;;;;;;;;26.10;99.90;;;;;;5043617;28;20208;-66
2023/05/22 11:01:36;;;;;;;;;;;26.20;99.90;;;;;;5043765;28;19984;-67
2023/05/22 11:04:10;;;;;;;;;;;26.20;99.90;;;;;;5043329;28;19921;-67
2023/05/22 11:06:37;;;;;;;;;;;26.30;99.90;;;;;;5043179;28;20113;-67
2023/05/22 11:09:17;;;;;;;;;;;26.30;99.90;;;;;;5040794;28;19921;-67
2023/05/22 11:11:47;;;;;;;;;;;26.40;99.90;;;;;;5021509;28;19921;-67
2023/05/22 11:14:16;;;;;;;;;;;26.50;99.90;;;;;;5023861;28;19921;-67
2023/05/22 11:16:42;;;;;;;;;;;26.50;99.90;;;;;;5022947;28;19928;-66
2023/05/22 11:19:09;;;;;;;;;;;26.50;99.90;;;;;;5023686;28;19988;-66
2023/05/22 11:24:21;;;;;;;;;;;26.80;99.90;;;;;;5011001;28;19964;-66
2023/05/22 13:26:44;;;;;;;;;;;29.90;93.80;;;;;;5023889;28;19916;-67
2023/05/22 13:29:11;;;;;;;;;;;29.70;93.90;;;;;;5017614;28;19985;-68
2023/05/22 13:31:37;;;;;;;;;;;29.50;94.20;;;;;;5006167;28;20191;-67
2023/05/22 13:34:04;;;;;;;;;;;29.40;94.50;;;;;;5015170;28;19940;-67
2023/05/22 13:36:31;;;;;;;;;;;29.60;93.80;;;;;;5024311;28;19927;-68
2023/05/22 13:38:58;;;;;;;;;;;29.80;92.80;;;;;;5016418;28;19929;-67
2023/05/22 13:41:24;;;;;;;;;;;30.10;93.00;;;;;;5023716;28;19984;-67
2023/05/22 13:43:52;;;;;;;;;;;30.40;92.30;;;;;;5025406;28;19981;-68
2023/05/22 13:46:20;;;;;;;;;;;30.60;92.40;;;;;;5022499;28;19988;-68
2023/05/22 13:48:47;;;;;;;;;;;30.80;92.30;;;;;;5024541;28;19921;-67
2023/05/22 13:51:13;;;;;;;;;;;30.80;91.70;;;;;;5025422;28;19921;-67
2023/05/22 13:53:40;;;;;;;;;;;30.90;91.70;;;;;;5025348;28;20192;-70
2023/05/22 13:56:07;;;;;;;;;;;31.00;90.20;;;;;;5024777;28;19996;-67
2023/05/22 13:58:33;;;;;;;;;;;31.10;89.70;;;;;;5024625;28;19921;-67
2023/05/22 14:01:01;;;;;;;;;;;31.10;90.20;;;;;;5024883;28;20209;-67
2023/05/22 14:03:28;;;;;;;;;;;31.20;88.40;;;;;;5022824;28;19989;-68
2023/05/22 14:05:55;;;;;;;;;;;31.20;90.30;;;;;;5014090;28;20140;-68
2023/05/22 14:08:21;;;;;;;;;;;31.40;90.00;;;;;;5022395;28;19988;-66
2023/05/22 14:10:48;;;;;;;;;;;31.40;86.20;;;;;;5023998;28;19985;-67
2023/05/22 14:13:15;;;;;;;;;;;31.50;87.00;;;;;;5023678;28;19990;-67
2023/05/22 14:15:42;;;;;;;;;;;31.30;86.00;;;;;;5009376;28;19980;-67
2023/05/22 14:18:10;;;;;;;;;;;31.20;86.00;;;;;;5004662;28;19993;-67
2023/05/22 14:20:36;;;;;;;;;;;31.40;88.00;;;;;;5024308;28;19922;-67
2023/05/22 14:23:03;;;;;;;;;;;31.30;87.20;;;;;;5024646;28;19926;-69
2023/05/22 14:25:30;;;;;;;;;;;31.20;87.80;;;;;;5024233;28;20276;-69
2023/05/22 14:27:56;;;;;;;;;;;31.30;87.00;;;;;;5023922;28;19981;-68
2023/05/22 14:30:23;;;;;;;;;;;31.30;89.00;;;;;;5021626;28;19984;-68
2023/05/22 14:32:50;;;;;;;;;;;31.40;87.80;;;;;;5024451;28;19921;-68
2023/05/22 14:35:18;;;;;;;;;;;31.40;90.20;;;;;;5024116;28;19957;-68
2023/05/22 14:37:45;;;;;;;;;;;31.40;87.30;;;;;;5023626;28;19921;-68
2023/05/22 14:40:12;;;;;;;;;;;31.20;87.80;;;;;;5023942;28;19922;-67
2023/05/22 14:42:39;;;;;;;;;;;31.00;88.50;;;;;;5024237;28;19922;-68
2023/05/22 14:45:06;;;;;;;;;;;30.90;89.60;;;;;;5024203;28;20065;-67
2023/05/22 14:47:32;;;;;;;;;;;30.80;87.90;;;;;;5024040;28;19984;-68
2023/05/22 14:49:59;;;;;;;;;;;30.70;88.60;;;;;;5024043;28;19952;-68
2023/05/22 14:52:27;;;;;;;;;;;30.40;86.70;;;;;;5023414;28;20259;-67
2023/05/22 14:54:53;;;;;;;;;;;30.10;87.40;;;;;;5023507;28;19928;-67
2023/05/22 14:57:20;;;;;;;;;;;30.00;88.70;;;;;;5023365;28;19988;-67
2023/05/22 14:59:46;;;;;;;;;;;30.00;88.80;;;;;;5024118;28;19963;-67
2023/05/22 15:02:13;;;;;;;;;;;30.00;87.30;;;;;;5023527;28;19921;-68
2023/05/22 15:04:40;;;;;;;;;;;29.90;87.60;;;;;;5022984;28;19952;-68
2023/05/22 15:07:06;;;;;;;;;;;29.80;90.00;;;;;;5023199;28;20285;-67
2023/05/22 15:09:35;;;;;;;;;;;29.60;85.10;;;;;;5023511;28;19928;-68
2023/05/22 15:12:01;;;;;;;;;;;29.50;86.50;;;;;;5023672;28;19968;-67
2023/05/22 15:14:30;;;;;;;;;;;29.40;85.50;;;;;;5021224;28;19922;-68
2023/05/22 15:16:58;;;;;;;;;;;29.50;88.30;;;;;;5023081;28;19922;-68
2023/05/22 15:19:25;;;;;;;;;;;29.70;85.90;;;;;;5023577;28;20109;-67
2023/05/22 15:21:53;;;;;;;;;;;29.90;86.00;;;;;;5009855;28;19922;-68
2023/05/22 15:24:19;;;;;;;;;;;30.20;84.60;;;;;;5041151;28;19952;-68
2023/05/22 15:26:47;;;;;;;;;;;30.30;83.30;;;;;;5038194;28;20117;-68
2023/05/22 15:29:14;;;;;;;;;;;30.50;83.80;;;;;;5018694;28;19921;-68
2023/05/22 15:31:41;;;;;;;;;;;30.70;82.00;;;;;;5023331;28;19928;-68
2023/05/22 15:34:07;;;;;;;;;;;30.90;83.50;;;;;;5019288;28;19930;-67
2023/05/22 15:36:35;;;;;;;;;;;30.90;80.30;;;;;;5022301;28;19922;-68
2023/05/22 15:39:02;;;;;;;;;;;30.70;81.20;;;;;;5023212;28;19921;-69
2023/05/22 15:41:29;;;;;;;;;;;30.80;81.40;;;;;;5023418;28;19922;-68
2023/05/22 15:43:57;;;;;;;;;;;30.80;79.30;;;;;;5022828;28;19929;-68
2023/05/22 15:46:23;;;;;;;;;;;30.90;80.20;;;;;;5015527;28;19922;-68
2023/05/22 15:48:52;;;;;;;;;;;30.80;81.10;;;;;;5023099;28;19921;-67
2023/05/22 15:51:19;;;;;;;;;;;30.80;78.70;;;;;;5022155;28;19968;-68
2023/05/22 15:53:49;;;;;;;;;;;30.80;79.30;;;;;;5021157;28;19993;-67
2023/05/22 15:56:17;;;;;;;;;;;30.60;81.20;;;;;;5021921;28;19927;-67
2023/05/22 15:58:43;;;;;;;;;;;30.70;80.10;;;;;;5020308;28;19996;-68
2023/05/22 16:01:12;;;;;;;;;;;30.60;80.20;;;;;;5022927;28;19921;-68
2023/05/22 16:03:39;;;;;;;;;;;30.70;80.40;;;;;;5025636;28;20225;-67
2023/05/22 16:06:06;;;;;;;;;;;30.60;78.30;;;;;;5022443;28;20268;-68
2023/05/22 16:08:33;;;;;;;;;;;30.50;79.00;;;;;;5005379;28;20156;-66
2023/05/22 16:11:00;;;;;;;;;;;30.40;79.50;;;;;;5010471;28;20209;-66
2023/05/22 16:13:27;;;;;;;;;;;30.30;78.90;;;;;;5022700;28;19922;-66
2023/05/22 16:15:54;;;;;;;;;;;30.20;78.80;;;;;;5006925;28;20213;-66
2023/05/22 16:18:22;;;;;;;;;;;30.10;79.40;;;;;;5003260;28;19928;-66
2023/05/22 16:20:49;;;;;;;;;;;30.10;79.60;;;;;;5021903;28;20228;-66